Terminal Aerodrome Forecast
Issued by NWS

Current Version | Previous Version | Text Only | Print | Product List | Glossary On
Versions: 1 2 3 4 5 6 7 8 9 10 11 12 13 14 15
791
FTUS41 KPHI 201734
TAFPNE
TAF
KPNE 201734Z 2018/2118 33012KT P6SM SCT250
     FM202200 36008KT P6SM SCT250
     FM210000 02004KT P6SM SCT250
     FM211400 11006KT P6SM SCT200=

USA.gov is the U.S. government's official web portal to all federal, state and local government web resources and services.